Time;durP1;ratioP1;P1;durP2;ratioP2;P2;SDS_P1;SDS_P2;PMS_P1;PMS_P2;Temp;Humidity;BMP_temperature;BMP_pressure;BME280_temperature;BME280_humidity;BME280_pressure;Samples;Min_cycle;Max_cycle;Signal;HPM_P1;HPM_P2
2022/10/19 00:00:43;;;;;;;0.30;0.30;;;;;;;;;;7382403;19;20507;-74
2022/10/19 00:03:08;;;;;;;0.30;0.30;;;;;;;;;;7382402;19;20129;-74
2022/10/19 00:05:34;;;;;;;0.30;0.30;;;;;;;;;;7381036;19;20193;-74
2022/10/19 00:08:00;;;;;;;0.30;0.30;;;;;;;;;;7380431;19;20125;-73
2022/10/19 00:10:26;;;;;;;0.30;0.30;;;;;;;;;;7385683;19;20169;-74
2022/10/19 00:12:51;;;;;;;0.30;0.30;;;;;;;;;;7386736;19;20137;-73
2022/10/19 00:15:16;;;;;;;0.30;0.30;;;;;;;;;;7390071;19;20502;-74
2022/10/19 00:17:42;;;;;;;0.30;0.30;;;;;;;;;;7388863;19;20144;-74
2022/10/19 00:20:08;;;;;;;0.30;0.30;;;;;;;;;;7388644;19;20132;-73
2022/10/19 00:22:33;;;;;;;0.30;0.30;;;;;;;;;;7390035;19;20629;-73
2022/10/19 00:24:58;;;;;;;0.30;0.30;;;;;;;;;;7390316;19;20149;-74
2022/10/19 00:27:24;;;;;;;0.30;0.30;;;;;;;;;;7388542;19;20206;-74
2022/10/19 00:29:49;;;;;;;0.30;0.30;;;;;;;;;;7387453;19;20121;-74
2022/10/19 00:32:14;;;;;;;0.30;0.30;;;;;;;;;;7388779;19;20156;-74
2022/10/19 00:34:39;;;;;;;0.20;0.20;;;;;;;;;;7387761;19;20570;-74
2022/10/19 00:37:05;;;;;;;0.30;0.30;;;;;;;;;;7388610;19;20153;-74
2022/10/19 00:39:30;;;;;;;0.20;0.20;;;;;;;;;;7387763;19;20137;-73
2022/10/19 00:41:55;;;;;;;0.30;0.30;;;;;;;;;;7387701;19;20129;-74
2022/10/19 00:44:27;;;;;;;0.30;0.30;;;;;;;;;;7394909;19;20674;-74
2022/10/19 00:46:52;;;;;;;0.30;0.30;;;;;;;;;;7397131;19;20125;-74
2022/10/19 00:49:23;;;;;;;0.20;0.20;;;;;;;;;;7395480;19;20168;-73
2022/10/19 00:52:00;;;;;;;0.40;0.40;;;;;;;;;;7392371;19;20129;-74
2022/10/19 00:54:26;;;;;;;0.30;0.30;;;;;;;;;;7395171;19;20136;-73
2022/10/19 00:56:54;;;;;;;0.30;0.30;;;;;;;;;;7395875;19;20530;-74
2022/10/19 00:59:21;;;;;;;0.40;0.40;;;;;;;;;;7395357;19;20129;-74
2022/10/19 01:01:46;;;;;;;0.30;0.30;;;;;;;;;;7394339;19;20136;-74
2022/10/19 01:04:12;;;;;;;0.30;0.30;;;;;;;;;;7392217;19;20121;-73
2022/10/19 01:06:38;;;;;;;0.20;0.20;;;;;;;;;;7388712;19;20189;-74
2022/10/19 01:09:05;;;;;;;0.30;0.30;;;;;;;;;;7384993;19;20141;-74
2022/10/19 01:11:46;;;;;;;0.30;0.30;;;;;;;;;;7389305;19;20173;-74
2022/10/19 01:14:27;;;;;;;0.30;0.30;;;;;;;;;;7387109;19;20157;-74
2022/10/19 01:17:18;;;;;;;0.43;0.43;;;;;;;;;;7391336;19;20141;-73
2022/10/19 01:20:29;;;;;;;0.40;0.40;;;;;;;;;;7388985;19;20129;-74
2022/10/19 01:23:19;;;;;;;0.20;0.20;;;;;;;;;;7388656;19;20208;-74
2022/10/19 01:26:17;;;;;;;0.30;0.30;;;;;;;;;;7390077;19;20149;-74
2022/10/19 01:29:10;;;;;;;0.30;0.30;;;;;;;;;;7390681;19;20615;-74
2022/10/19 01:31:56;;;;;;;0.30;0.30;;;;;;;;;;7388156;19;20598;-74
2022/10/19 01:34:28;;;;;;;0.30;0.30;;;;;;;;;;7395110;19;20141;-73
2022/10/19 01:37:05;;;;;;;0.30;0.30;;;;;;;;;;7388525;19;20149;-73
2022/10/19 01:39:37;;;;;;;0.30;0.30;;;;;;;;;;7390143;19;20125;-74
2022/10/19 01:42:23;;;;;;;0.30;0.30;;;;;;;;;;7388682;19;20631;-73
2022/10/19 01:44:53;;;;;;;0.30;0.30;;;;;;;;;;7387693;19;20159;-73
2022/10/19 01:47:39;;;;;;;0.30;0.30;;;;;;;;;;7387597;19;20467;-74
2022/10/19 01:50:09;;;;;;;0.30;0.30;;;;;;;;;;7388638;19;20148;-72
2022/10/19 01:52:36;;;;;;;0.30;0.30;;;;;;;;;;7390273;19;20606;-73
2022/10/19 01:55:02;;;;;;;0.30;0.30;;;;;;;;;;7381534;19;20515;-73
2022/10/19 01:57:40;;;;;;;0.30;0.30;;;;;;;;;;7388363;19;20144;-73
2022/10/19 02:00:07;;;;;;;0.30;0.30;;;;;;;;;;7391276;19;20137;-73
2022/10/19 02:02:34;;;;;;;0.30;0.30;;;;;;;;;;7386543;19;20510;-74
2022/10/19 02:05:01;;;;;;;0.30;0.30;;;;;;;;;;7390431;19;20199;-73
2022/10/19 02:07:26;;;;;;;0.30;0.30;;;;;;;;;;7384692;19;20133;-74
2022/10/19 02:09:52;;;;;;;0.30;0.30;;;;;;;;;;7384669;19;20129;-73
2022/10/19 02:12:17;;;;;;;0.30;0.30;;;;;;;;;;7386572;19;20132;-74
2022/10/19 02:14:45;;;;;;;0.20;0.20;;;;;;;;;;7387994;19;20551;-73
2022/10/19 02:17:16;;;;;;;0.40;0.40;;;;;;;;;;7393531;19;20125;-73
2022/10/19 02:19:42;;;;;;;0.30;0.30;;;;;;;;;;7392104;19;20125;-73
2022/10/19 02:22:08;;;;;;;0.30;0.30;;;;;;;;;;7393262;19;20156;-74
2022/10/19 02:24:33;;;;;;;0.30;0.30;;;;;;;;;;7387302;19;20852;-74
2022/10/19 02:27:03;;;;;;;0.27;0.27;;;;;;;;;;7391688;19;20121;-74
2022/10/19 02:29:29;;;;;;;0.30;0.30;;;;;;;;;;7391884;19;20136;-73
2022/10/19 02:31:54;;;;;;;0.30;0.30;;;;;;;;;;7390453;19;20121;-73
2022/10/19 02:34:19;;;;;;;0.30;0.30;;;;;;;;;;7392065;19;20121;-74
2022/10/19 02:36:45;;;;;;;0.30;0.30;;;;;;;;;;7391146;19;20140;-74
2022/10/19 02:39:10;;;;;;;0.30;0.30;;;;;;;;;;7392526;19;20140;-74
2022/10/19 02:41:39;;;;;;;0.30;0.30;;;;;;;;;;7391859;19;20136;-74
2022/10/19 02:44:12;;;;;;;0.30;0.30;;;;;;;;;;7392180;19;20137;-73
2022/10/19 02:46:44;;;;;;;0.30;0.30;;;;;;;;;;7392109;19;20162;-74
2022/10/19 02:49:10;;;;;;;0.30;0.30;;;;;;;;;;7391398;19;20124;-74
2022/10/19 02:51:38;;;;;;;0.30;0.30;;;;;;;;;;7389090;19;20144;-74
2022/10/19 02:54:05;;;;;;;0.30;0.30;;;;;;;;;;7392199;19;20148;-73
2022/10/19 02:56:31;;;;;;;0.30;0.30;;;;;;;;;;7391187;19;20610;-74
2022/10/19 02:58:56;;;;;;;0.20;0.20;;;;;;;;;;7393571;19;20144;-74
2022/10/19 03:01:22;;;;;;;0.30;0.30;;;;;;;;;;7390827;19;20156;-74
2022/10/19 03:03:47;;;;;;;0.27;0.27;;;;;;;;;;7390811;19;20137;-74
2022/10/19 03:06:12;;;;;;;0.30;0.30;;;;;;;;;;7389080;19;20181;-74
2022/10/19 03:08:38;;;;;;;0.20;0.20;;;;;;;;;;7390614;19;20128;-74
2022/10/19 03:11:03;;;;;;;0.20;0.20;;;;;;;;;;7388489;19;20482;-74
2022/10/19 03:13:28;;;;;;;0.30;0.30;;;;;;;;;;7390075;19;20641;-74
2022/10/19 03:15:54;;;;;;;0.30;0.30;;;;;;;;;;7386281;19;20169;-74
2022/10/19 03:18:19;;;;;;;0.30;0.30;;;;;;;;;;7388650;19;20513;-73
2022/10/19 03:20:44;;;;;;;0.30;0.30;;;;;;;;;;7390455;19;20141;-73
2022/10/19 03:23:10;;;;;;;0.30;0.30;;;;;;;;;;7390931;19;20153;-74
2022/10/19 03:25:35;;;;;;;0.30;0.30;;;;;;;;;;7389930;19;20173;-74
2022/10/19 03:28:00;;;;;;;0.30;0.30;;;;;;;;;;7392169;19;20512;-73
2022/10/19 03:30:25;;;;;;;0.20;0.20;;;;;;;;;;7386913;19;20640;-73
2022/10/19 03:32:51;;;;;;;0.30;0.30;;;;;;;;;;7390627;19;20133;-73
2022/10/19 03:35:16;;;;;;;0.20;0.20;;;;;;;;;;7392186;19;20487;-74
2022/10/19 03:37:41;;;;;;;0.30;0.30;;;;;;;;;;7387845;19;20140;-74
2022/10/19 03:40:07;;;;;;;0.30;0.30;;;;;;;;;;7389161;19;20690;-73
2022/10/19 03:42:33;;;;;;;0.30;0.30;;;;;;;;;;7391492;19;20168;-74
2022/10/19 03:44:58;;;;;;;0.30;0.30;;;;;;;;;;7389551;19;20149;-74
2022/10/19 03:47:23;;;;;;;0.20;0.20;;;;;;;;;;7389962;19;20141;-73
2022/10/19 03:49:49;;;;;;;0.30;0.30;;;;;;;;;;7388128;19;20597;-73
2022/10/19 03:52:16;;;;;;;0.27;0.27;;;;;;;;;;7388213;19;20149;-73
2022/10/19 03:54:41;;;;;;;0.20;0.20;;;;;;;;;;7390175;19;20172;-73
2022/10/19 03:57:07;;;;;;;0.20;0.20;;;;;;;;;;7386725;19;20549;-73
2022/10/19 03:59:32;;;;;;;0.27;0.27;;;;;;;;;;7390682;19;20650;-73
2022/10/19 04:01:57;;;;;;;0.30;0.30;;;;;;;;;;7387696;19;20129;-73
2022/10/19 04:04:23;;;;;;;0.30;0.30;;;;;;;;;;7386411;19;20240;-73
2022/10/19 04:06:49;;;;;;;0.30;0.30;;;;;;;;;;7389621;19;20165;-73
2022/10/19 04:09:17;;;;;;;0.30;0.30;;;;;;;;;;7388079;19;20124;-73
2022/10/19 04:11:43;;;;;;;0.30;0.30;;;;;;;;;;7386597;19;20506;-74
2022/10/19 04:14:10;;;;;;;0.50;0.50;;;;;;;;;;7389627;19;20135;-73
2022/10/19 04:16:35;;;;;;;0.30;0.30;;;;;;;;;;7388717;19;20176;-73
2022/10/19 04:19:00;;;;;;;0.30;0.30;;;;;;;;;;7396656;19;20658;-74
2022/10/19 04:21:37;;;;;;;0.30;0.30;;;;;;;;;;7396562;19;20140;-74
2022/10/19 04:24:20;;;;;;;0.30;0.30;;;;;;;;;;7396511;19;20140;-73
2022/10/19 04:26:49;;;;;;;0.30;0.30;;;;;;;;;;7396410;19;20132;-73
2022/10/19 04:29:16;;;;;;;0.30;0.30;;;;;;;;;;7392225;19;20129;-72
2022/10/19 04:31:41;;;;;;;0.30;0.30;;;;;;;;;;7391320;19;20132;-73
2022/10/19 04:34:07;;;;;;;0.30;0.30;;;;;;;;;;7393526;19;20190;-73
2022/10/19 04:36:33;;;;;;;0.27;0.27;;;;;;;;;;7396815;19;20133;-73
2022/10/19 04:38:58;;;;;;;0.30;0.30;;;;;;;;;;7394353;19;20121;-74
2022/10/19 04:41:24;;;;;;;0.30;0.30;;;;;;;;;;7393746;19;20144;-73
2022/10/19 04:43:57;;;;;;;0.30;0.30;;;;;;;;;;7387340;19;20208;-74
2022/10/19 04:46:24;;;;;;;0.20;0.20;;;;;;;;;;7390552;19;20153;-72
2022/10/19 04:48:49;;;;;;;0.30;0.30;;;;;;;;;;7394395;19;20648;-73
2022/10/19 04:51:15;;;;;;;0.60;0.60;;;;;;;;;;7392613;19;20490;-74
2022/10/19 04:53:42;;;;;;;0.30;0.30;;;;;;;;;;7394262;19;20161;-73
2022/10/19 04:56:26;;;;;;;0.30;0.30;;;;;;;;;;7391911;19;20160;-73
2022/10/19 04:58:59;;;;;;;0.20;0.20;;;;;;;;;;7394299;19;20163;-74
2022/10/19 05:01:26;;;;;;;0.30;0.30;;;;;;;;;;7395000;19;20124;-73
2022/10/19 05:03:53;;;;;;;0.30;0.30;;;;;;;;;;7394840;19;20137;-73
2022/10/19 05:06:18;;;;;;;0.20;0.20;;;;;;;;;;7391603;19;20186;-73
2022/10/19 05:08:44;;;;;;;0.30;0.30;;;;;;;;;;7395095;19;20149;-74
2022/10/19 05:11:13;;;;;;;0.30;0.30;;;;;;;;;;7392754;19;20615;-74
2022/10/19 05:13:39;;;;;;;0.30;0.30;;;;;;;;;;7388178;19;20152;-74
2022/10/19 05:16:05;;;;;;;0.30;0.30;;;;;;;;;;7390285;19;20149;-73
2022/10/19 05:18:31;;;;;;;0.30;0.30;;;;;;;;;;7393495;19;20192;-73
2022/10/19 05:21:07;;;;;;;0.30;0.30;;;;;;;;;;7393185;19;20480;-73
2022/10/19 05:23:33;;;;;;;0.40;0.40;;;;;;;;;;7387039;19;20146;-74
2022/10/19 05:26:10;;;;;;;0.30;0.30;;;;;;;;;;7386531;19;20615;-74
2022/10/19 05:28:36;;;;;;;0.50;0.50;;;;;;;;;;7387466;19;20148;-73
2022/10/19 05:31:06;;;;;;;0.30;0.30;;;;;;;;;;7386563;19;20148;-73
2022/10/19 05:33:31;;;;;;;0.30;0.30;;;;;;;;;;7386481;19;20140;-73
2022/10/19 05:35:56;;;;;;;0.30;0.30;;;;;;;;;;7387734;19;20168;-73
2022/10/19 05:38:22;;;;;;;0.30;0.30;;;;;;;;;;7393979;19;20113;-73
2022/10/19 05:40:47;;;;;;;0.28;0.28;;;;;;;;;;7393062;19;20156;-73
2022/10/19 05:43:12;;;;;;;0.30;0.30;;;;;;;;;;7375974;19;20148;-74
2022/10/19 05:45:37;;;;;;;0.40;0.40;;;;;;;;;;7384391;19;20145;-73
2022/10/19 05:48:03;;;;;;;0.30;0.30;;;;;;;;;;7391390;19;20137;-73
2022/10/19 05:50:28;;;;;;;0.30;0.30;;;;;;;;;;7387033;19;20161;-74
2022/10/19 05:52:54;;;;;;;0.20;0.20;;;;;;;;;;7383847;19;20148;-73
2022/10/19 05:55:19;;;;;;;0.30;0.30;;;;;;;;;;7384172;19;20162;-74
2022/10/19 05:57:44;;;;;;;0.20;0.20;;;;;;;;;;7377099;19;20121;-73
2022/10/19 06:00:10;;;;;;;0.30;0.30;;;;;;;;;;7377987;19;20483;-73
2022/10/19 06:02:35;;;;;;;0.35;0.35;;;;;;;;;;7391909;19;20136;-73
2022/10/19 06:05:01;;;;;;;0.30;0.30;;;;;;;;;;7385308;19;20622;-73
2022/10/19 06:07:26;;;;;;;0.30;0.30;;;;;;;;;;7386122;19;20137;-74
2022/10/19 06:09:51;;;;;;;0.35;0.35;;;;;;;;;;7389943;19;20164;-74
2022/10/19 06:12:18;;;;;;;0.30;0.30;;;;;;;;;;7385682;19;21131;-73
2022/10/19 06:14:43;;;;;;;0.32;0.32;;;;;;;;;;7385027;19;20645;-74
2022/10/19 06:17:09;;;;;;;0.30;0.30;;;;;;;;;;7378330;19;20121;-73
2022/10/19 06:19:35;;;;;;;0.30;0.30;;;;;;;;;;7382795;19;20148;-73
2022/10/19 06:22:00;;;;;;;0.98;0.68;;;;;;;;;;7386766;19;20130;-73
2022/10/19 06:24:25;;;;;;;0.30;0.30;;;;;;;;;;7389182;19;20314;-74
2022/10/19 06:26:51;;;;;;;0.30;0.30;;;;;;;;;;7393803;19;20193;-74
2022/10/19 06:29:16;;;;;;;0.88;0.88;;;;;;;;;;7393153;19;20463;-73
2022/10/19 06:31:41;;;;;;;0.35;0.35;;;;;;;;;;7390184;19;20117;-74
2022/10/19 06:34:07;;;;;;;0.20;0.20;;;;;;;;;;7391421;19;20140;-72
2022/10/19 06:36:33;;;;;;;0.30;0.30;;;;;;;;;;7393761;19;20148;-74
2022/10/19 06:39:00;;;;;;;0.30;0.30;;;;;;;;;;7392239;19;20483;-73
2022/10/19 06:41:25;;;;;;;0.30;0.30;;;;;;;;;;7391882;19;20124;-72
2022/10/19 06:43:52;;;;;;;0.30;0.30;;;;;;;;;;7394453;19;20188;-74
2022/10/19 06:46:22;;;;;;;0.30;0.30;;;;;;;;;;7391193;19;20544;-73
2022/10/19 06:48:57;;;;;;;0.30;0.30;;;;;;;;;;7392019;19;20591;-74
2022/10/19 06:51:24;;;;;;;0.30;0.30;;;;;;;;;;7389693;19;20121;-73
2022/10/19 06:53:50;;;;;;;0.30;0.30;;;;;;;;;;7392236;19;20141;-74
2022/10/19 06:56:16;;;;;;;0.55;0.55;;;;;;;;;;7389999;19;20639;-73
2022/10/19 06:58:41;;;;;;;0.30;0.30;;;;;;;;;;7392215;19;20221;-74
2022/10/19 07:01:07;;;;;;;0.22;0.22;;;;;;;;;;7390851;19;20194;-74
2022/10/19 07:03:33;;;;;;;1.42;1.33;;;;;;;;;;7393060;19;20144;-73
2022/10/19 07:05:59;;;;;;;0.30;0.30;;;;;;;;;;7389255;19;20149;-73
2022/10/19 07:08:27;;;;;;;1.00;1.00;;;;;;;;;;7390936;19;20626;-74
2022/10/19 07:10:55;;;;;;;0.30;0.30;;;;;;;;;;7389850;19;20121;-73
2022/10/19 07:13:21;;;;;;;0.30;0.30;;;;;;;;;;7391809;19;20157;-73
2022/10/19 07:15:46;;;;;;;0.60;0.60;;;;;;;;;;7390754;19;20554;-74
2022/10/19 07:18:12;;;;;;;0.30;0.30;;;;;;;;;;7387322;19;20144;-74
2022/10/19 07:20:37;;;;;;;0.30;0.30;;;;;;;;;;7390692;19;20629;-74
2022/10/19 07:23:02;;;;;;;0.28;0.28;;;;;;;;;;7387700;19;20583;-72
2022/10/19 07:25:29;;;;;;;0.30;0.30;;;;;;;;;;7388938;19;20578;-74
2022/10/19 07:27:55;;;;;;;0.20;0.20;;;;;;;;;;7390276;19;20136;-74
2022/10/19 07:30:20;;;;;;;0.50;0.50;;;;;;;;;;7384018;19;20139;-74
2022/10/19 07:32:46;;;;;;;0.30;0.30;;;;;;;;;;7389395;19;20619;-73
2022/10/19 07:35:11;;;;;;;3.92;0.98;;;;;;;;;;7389239;19;20623;-74
2022/10/19 07:37:36;;;;;;;0.30;0.30;;;;;;;;;;7392521;19;20136;-74
2022/10/19 07:40:02;;;;;;;0.60;0.60;;;;;;;;;;7390187;19;20615;-74
2022/10/19 07:42:29;;;;;;;0.30;0.30;;;;;;;;;;7393000;19;20147;-73
2022/10/19 07:44:54;;;;;;;0.30;0.30;;;;;;;;;;7390290;19;20348;-74
2022/10/19 07:47:20;;;;;;;0.30;0.30;;;;;;;;;;7392087;19;20150;-74
2022/10/19 07:49:45;;;;;;;0.50;0.50;;;;;;;;;;7390329;19;20212;-74
2022/10/19 07:52:10;;;;;;;0.20;0.20;;;;;;;;;;7389172;19;20147;-73
2022/10/19 07:54:36;;;;;;;0.30;0.30;;;;;;;;;;7390688;19;20243;-73
2022/10/19 07:57:01;;;;;;;0.30;0.30;;;;;;;;;;7389927;19;20160;-74
2022/10/19 07:59:26;;;;;;;0.30;0.30;;;;;;;;;;7390772;19;20132;-73
2022/10/19 08:01:53;;;;;;;0.30;0.30;;;;;;;;;;7389332;19;20137;-74
2022/10/19 08:04:18;;;;;;;2.00;0.93;;;;;;;;;;7390861;19;20246;-73
2022/10/19 08:06:43;;;;;;;0.30;0.30;;;;;;;;;;7390805;19;20167;-74
2022/10/19 08:09:09;;;;;;;0.40;0.40;;;;;;;;;;7389832;19;20540;-74
2022/10/19 08:11:34;;;;;;;0.63;0.63;;;;;;;;;;7387234;19;20216;-73
2022/10/19 08:14:01;;;;;;;0.40;0.40;;;;;;;;;;7390622;19;20140;-74
2022/10/19 08:16:33;;;;;;;0.68;0.68;;;;;;;;;;7388649;19;20164;-74
2022/10/19 08:19:05;;;;;;;0.65;0.65;;;;;;;;;;7391620;19;20133;-74
2022/10/19 08:21:31;;;;;;;0.20;0.20;;;;;;;;;;7387306;19;20117;-73
2022/10/19 08:23:57;;;;;;;0.30;0.30;;;;;;;;;;7389122;19;20498;-74
2022/10/19 08:26:22;;;;;;;0.30;0.30;;;;;;;;;;7386871;19;20172;-75
2022/10/19 08:28:48;;;;;;;0.30;0.30;;;;;;;;;;7389136;19;20208;-73
2022/10/19 08:31:21;;;;;;;0.30;0.30;;;;;;;;;;7386337;19;20140;-73
2022/10/19 08:33:48;;;;;;;0.30;0.30;;;;;;;;;;7391632;19;20125;-74
2022/10/19 08:36:14;;;;;;;0.40;0.40;;;;;;;;;;7387819;19;20153;-74
2022/10/19 08:38:42;;;;;;;0.30;0.30;;;;;;;;;;7389776;19;20136;-74
2022/10/19 08:41:33;;;;;;;0.35;0.35;;;;;;;;;;7389358;19;20121;-73
2022/10/19 08:44:13;;;;;;;0.55;0.55;;;;;;;;;;7388706;19;20603;-74
2022/10/19 08:46:58;;;;;;;1.02;1.02;;;;;;;;;;7389503;19;20136;-74
2022/10/19 08:49:25;;;;;;;0.30;0.30;;;;;;;;;;7388426;19;20583;-74
2022/10/19 08:51:58;;;;;;;0.30;0.30;;;;;;;;;;7385467;19;20156;-74
2022/10/19 08:54:29;;;;;;;0.30;0.30;;;;;;;;;;7389616;19;20592;-74
2022/10/19 08:57:26;;;;;;;0.30;0.30;;;;;;;;;;7389773;19;20474;-74
2022/10/19 09:00:07;;;;;;;0.30;0.30;;;;;;;;;;7386687;19;20144;-73
2022/10/19 09:02:50;;;;;;;0.30;0.30;;;;;;;;;;7390569;19;20531;-73
2022/10/19 09:05:25;;;;;;;0.30;0.30;;;;;;;;;;7393962;19;20742;-74
2022/10/19 09:07:52;;;;;;;0.30;0.30;;;;;;;;;;7399347;19;20132;-73
2022/10/19 09:10:21;;;;;;;0.30;0.30;;;;;;;;;;7395281;19;20121;-74
2022/10/19 09:12:50;;;;;;;0.30;0.30;;;;;;;;;;7395218;19;20164;-73
2022/10/19 09:15:22;;;;;;;0.30;0.30;;;;;;;;;;7395712;19;20180;-74
2022/10/19 09:17:48;;;;;;;0.40;0.40;;;;;;;;;;7395025;19;20153;-73
2022/10/19 09:20:19;;;;;;;0.30;0.30;;;;;;;;;;7396067;19;20176;-73
2022/10/19 09:23:03;;;;;;;0.30;0.30;;;;;;;;;;7393584;19;20171;-74
2022/10/19 09:25:29;;;;;;;0.50;0.50;;;;;;;;;;7396381;19;20149;-74
2022/10/19 09:28:05;;;;;;;0.30;0.30;;;;;;;;;;7394890;19;20133;-74
2022/10/19 09:30:33;;;;;;;0.30;0.30;;;;;;;;;;7392172;19;20127;-74
2022/10/19 09:32:59;;;;;;;0.30;0.30;;;;;;;;;;7392082;19;20152;-74
2022/10/19 09:35:35;;;;;;;0.30;0.30;;;;;;;;;;7391422;19;20631;-72
2022/10/19 09:38:01;;;;;;;0.73;0.73;;;;;;;;;;7391600;19;20148;-73
2022/10/19 09:40:28;;;;;;;0.40;0.40;;;;;;;;;;7391505;19;20133;-74
2022/10/19 09:42:58;;;;;;;0.40;0.40;;;;;;;;;;7390136;19;20141;-74
2022/10/19 09:45:37;;;;;;;0.30;0.30;;;;;;;;;;7391281;19;20149;-75
2022/10/19 09:48:05;;;;;;;0.52;0.52;;;;;;;;;;7391200;19;20515;-74
2022/10/19 09:50:30;;;;;;;0.30;0.30;;;;;;;;;;7389996;19;21066;-74
2022/10/19 09:53:03;;;;;;;0.40;0.40;;;;;;;;;;7391001;19;20208;-73
2022/10/19 09:55:38;;;;;;;0.35;0.35;;;;;;;;;;7390984;19;20603;-74
2022/10/19 09:58:12;;;;;;;0.52;0.52;;;;;;;;;;7392083;19;20144;-75
2022/10/19 10:00:45;;;;;;;0.40;0.40;;;;;;;;;;7393910;19;20145;-74
2022/10/19 10:03:26;;;;;;;0.40;0.40;;;;;;;;;;7392189;19;20161;-74
2022/10/19 10:05:52;;;;;;;0.30;0.30;;;;;;;;;;7391140;19;20188;-75
2022/10/19 10:08:20;;;;;;;0.30;0.30;;;;;;;;;;7391843;19;20156;-75
2022/10/19 10:11:08;;;;;;;0.30;0.30;;;;;;;;;;7390153;19;20151;-74
2022/10/19 10:13:38;;;;;;;0.32;0.32;;;;;;;;;;7391653;19;20144;-74
2022/10/19 10:16:07;;;;;;;0.38;0.38;;;;;;;;;;7386138;19;20183;-74
2022/10/19 10:18:36;;;;;;;0.40;0.40;;;;;;;;;;7391549;19;20128;-75
2022/10/19 10:21:10;;;;;;;0.30;0.30;;;;;;;;;;7390500;19;20606;-74
2022/10/19 10:23:36;;;;;;;0.43;0.43;;;;;;;;;;7392054;19;20143;-75
2022/10/19 10:26:03;;;;;;;0.30;0.30;;;;;;;;;;7390202;19;20578;-74
2022/10/19 10:28:29;;;;;;;0.30;0.30;;;;;;;;;;7393575;19;20125;-75
2022/10/19 10:31:00;;;;;;;2.05;0.88;;;;;;;;;;7387008;19;20643;-73
2022/10/19 10:33:27;;;;;;;0.30;0.30;;;;;;;;;;7392160;19;20265;-73
2022/10/19 10:36:00;;;;;;;0.50;0.50;;;;;;;;;;7392814;19;20172;-75
2022/10/19 10:38:34;;;;;;;0.30;0.30;;;;;;;;;;7387027;19;20129;-73
2022/10/19 10:41:03;;;;;;;0.30;0.30;;;;;;;;;;7384759;19;20227;-74
2022/10/19 10:43:35;;;;;;;0.35;0.35;;;;;;;;;;7385217;19;20125;-75
2022/10/19 10:46:07;;;;;;;0.30;0.30;;;;;;;;;;7383837;19;20145;-74
2022/10/19 10:48:37;;;;;;;0.30;0.30;;;;;;;;;;7386579;19;20136;-74
2022/10/19 10:51:09;;;;;;;0.32;0.32;;;;;;;;;;7383899;19;20156;-74
2022/10/19 10:53:42;;;;;;;0.30;0.30;;;;;;;;;;7388675;19;20125;-74
2022/10/19 10:56:28;;;;;;;0.40;0.40;;;;;;;;;;7392127;19;20173;-75
2022/10/19 10:58:59;;;;;;;0.40;0.40;;;;;;;;;;7393494;19;20195;-74
2022/10/19 11:01:32;;;;;;;0.50;0.50;;;;;;;;;;7392774;19;20137;-74
2022/10/19 11:04:04;;;;;;;0.30;0.30;;;;;;;;;;7393039;19;20163;-74
2022/10/19 11:06:33;;;;;;;1.38;0.85;;;;;;;;;;7393125;19;20128;-74
2022/10/19 11:09:06;;;;;;;0.43;0.43;;;;;;;;;;7392641;19;20148;-74
2022/10/19 11:11:38;;;;;;;0.63;0.63;;;;;;;;;;7390662;19;20160;-74
2022/10/19 11:14:07;;;;;;;0.63;0.63;;;;;;;;;;7392516;19;20137;-75
2022/10/19 11:16:37;;;;;;;0.55;0.55;;;;;;;;;;7392870;19;20149;-74
2022/10/19 11:19:23;;;;;;;0.47;0.47;;;;;;;;;;7395033;19;20148;-73
2022/10/19 11:22:05;;;;;;;0.40;0.40;;;;;;;;;;7394571;19;20135;-73
2022/10/19 11:24:40;;;;;;;0.30;0.30;;;;;;;;;;7393561;19;20175;-75
2022/10/19 11:27:22;;;;;;;0.30;0.30;;;;;;;;;;7391708;19;20147;-73
2022/10/19 11:30:07;;;;;;;0.30;0.30;;;;;;;;;;7393486;19;20124;-74
2022/10/19 11:32:50;;;;;;;0.70;0.70;;;;;;;;;;7390325;19;20125;-75
2022/10/19 11:35:28;;;;;;;0.45;0.45;;;;;;;;;;7392292;19;20214;-75
2022/10/19 11:38:11;;;;;;;0.40;0.40;;;;;;;;;;7393451;19;20503;-75
2022/10/19 11:40:44;;;;;;;0.52;0.52;;;;;;;;;;7391738;19;20144;-75
2022/10/19 11:43:37;;;;;;;0.30;0.30;;;;;;;;;;7394129;19;20153;-74
2022/10/19 11:46:33;;;;;;;0.50;0.50;;;;;;;;;;7393054;19;20145;-75
2022/10/19 11:49:29;;;;;;;2.50;1.65;;;;;;;;;;7392267;19;20137;-75
2022/10/19 11:52:05;;;;;;;0.30;0.30;;;;;;;;;;7389111;19;20148;-74
2022/10/19 11:54:57;;;;;;;1.10;0.65;;;;;;;;;;7391164;19;20161;-74
2022/10/19 11:57:30;;;;;;;0.50;0.50;;;;;;;;;;7391562;19;20842;-74
2022/10/19 12:00:02;;;;;;;0.43;0.43;;;;;;;;;;7388418;19;20154;-73
2022/10/19 12:03:05;;;;;;;0.30;0.30;;;;;;;;;;7392187;19;20129;-73
2022/10/19 12:05:49;;;;;;;0.57;0.57;;;;;;;;;;7390189;19;20256;-74
2022/10/19 12:08:34;;;;;;;0.30;0.30;;;;;;;;;;7390087;19;20140;-74
2022/10/19 12:11:43;;;;;;;0.30;0.30;;;;;;;;;;7387111;19;20586;-73
2022/10/19 12:14:12;;;;;;;0.40;0.40;;;;;;;;;;7389412;19;20136;-74
2022/10/19 12:16:44;;;;;;;0.40;0.40;;;;;;;;;;7389496;19;20209;-74
2022/10/19 12:19:18;;;;;;;0.30;0.30;;;;;;;;;;7387619;19;20193;-74
2022/10/19 12:21:43;;;;;;;0.40;0.40;;;;;;;;;;7388408;19;20140;-74
2022/10/19 12:24:16;;;;;;;0.52;0.52;;;;;;;;;;7387664;19;20121;-74
2022/10/19 12:26:42;;;;;;;0.35;0.35;;;;;;;;;;7389452;19;20171;-74
2022/10/19 12:29:18;;;;;;;1.55;0.98;;;;;;;;;;7389797;19;20621;-74
2022/10/19 12:31:45;;;;;;;0.30;0.30;;;;;;;;;;7387290;19;20116;-74
2022/10/19 12:34:35;;;;;;;0.40;0.40;;;;;;;;;;7388888;19;20136;-74
2022/10/19 12:37:23;;;;;;;0.40;0.40;;;;;;;;;;7387069;19;20467;-74
2022/10/19 12:39:54;;;;;;;0.30;0.30;;;;;;;;;;7390786;19;20154;-74
2022/10/19 12:42:47;;;;;;;0.43;0.43;;;;;;;;;;7395547;19;20630;-75
2022/10/19 12:45:24;;;;;;;0.30;0.30;;;;;;;;;;7393422;19;20638;-74
2022/10/19 12:48:19;;;;;;;0.47;0.47;;;;;;;;;;7396512;19;20172;-74
2022/10/19 12:50:47;;;;;;;0.30;0.30;;;;;;;;;;7394461;19;20144;-74
2022/10/19 12:53:24;;;;;;;0.50;0.50;;;;;;;;;;7397021;19;20157;-74
2022/10/19 12:56:03;;;;;;;0.40;0.40;;;;;;;;;;7389350;19;20231;-75
2022/10/19 12:58:37;;;;;;;0.30;0.30;;;;;;;;;;7394879;19;20654;-74
2022/10/19 13:01:05;;;;;;;0.40;0.40;;;;;;;;;;7392844;19;20578;-74
2022/10/19 13:03:33;;;;;;;0.60;0.60;;;;;;;;;;7394498;19;20129;-74
2022/10/19 13:06:01;;;;;;;0.57;0.57;;;;;;;;;;7392209;19;20156;-74
2022/10/19 13:08:30;;;;;;;0.47;0.47;;;;;;;;;;7395974;19;20125;-75
2022/10/19 13:11:07;;;;;;;0.30;0.30;;;;;;;;;;7393117;19;20204;-75
2022/10/19 13:13:57;;;;;;;0.43;0.43;;;;;;;;;;7395728;19;20133;-74
2022/10/19 13:16:28;;;;;;;0.30;0.30;;;;;;;;;;7394217;19;20152;-75
2022/10/19 13:19:17;;;;;;;0.40;0.40;;;;;;;;;;7396161;19;20133;-74
2022/10/19 13:21:44;;;;;;;0.40;0.40;;;;;;;;;;7395155;19;20138;-74
2022/10/19 13:24:30;;;;;;;0.40;0.40;;;;;;;;;;7396968;19;20524;-74
2022/10/19 13:27:01;;;;;;;0.32;0.32;;;;;;;;;;7396781;19;20129;-74
2022/10/19 13:29:38;;;;;;;0.98;0.52;;;;;;;;;;7395249;19;20149;-75
2022/10/19 13:32:28;;;;;;;0.50;0.50;;;;;;;;;;7394893;19;20132;-75
2022/10/19 13:34:53;;;;;;;0.40;0.40;;;;;;;;;;7392853;19;20231;-75
2022/10/19 13:37:19;;;;;;;0.40;0.40;;;;;;;;;;7394472;19;20133;-74
2022/10/19 13:39:45;;;;;;;0.52;0.52;;;;;;;;;;7394157;19;20136;-74
2022/10/19 13:42:25;;;;;;;0.43;0.43;;;;;;;;;;7395332;19;20631;-74
2022/10/19 13:44:51;;;;;;;0.40;0.40;;;;;;;;;;7399496;19;20152;-75
2022/10/19 13:47:36;;;;;;;0.65;0.63;;;;;;;;;;7401159;19;20631;-74
2022/10/19 13:50:41;;;;;;;0.30;0.30;;;;;;;;;;7392640;19;20125;-75
2022/10/19 13:53:34;;;;;;;0.30;0.30;;;;;;;;;;7392534;19;20141;-74
2022/10/19 13:56:28;;;;;;;0.35;0.35;;;;;;;;;;7393900;19;20145;-74
2022/10/19 13:59:22;;;;;;;0.85;0.85;;;;;;;;;;7392513;19;20157;-73
2022/10/19 14:01:57;;;;;;;1.42;0.98;;;;;;;;;;7393821;19;20186;-74
2022/10/19 14:04:22;;;;;;;0.50;0.50;;;;;;;;;;7394218;19;20626;-74
2022/10/19 14:07:00;;;;;;;0.30;0.30;;;;;;;;;;7396200;19;20121;-73
2022/10/19 14:09:50;;;;;;;0.40;0.40;;;;;;;;;;7394618;19;20132;-74
2022/10/19 14:12:25;;;;;;;0.30;0.30;;;;;;;;;;7393844;19;20109;-74
2022/10/19 14:14:52;;;;;;;0.60;0.60;;;;;;;;;;7392994;19;20197;-74
2022/10/19 14:17:29;;;;;;;0.50;0.50;;;;;;;;;;7393265;19;20188;-74
2022/10/19 14:19:58;;;;;;;0.40;0.40;;;;;;;;;;7391626;19;20492;-73
2022/10/19 14:22:24;;;;;;;0.98;0.60;;;;;;;;;;7393401;19;20152;-74
2022/10/19 14:24:49;;;;;;;0.50;0.50;;;;;;;;;;7391722;19;20172;-75
2022/10/19 14:27:21;;;;;;;0.30;0.30;;;;;;;;;;7393436;19;20148;-74
2022/10/19 14:29:48;;;;;;;0.30;0.30;;;;;;;;;;7391243;19;20151;-73
2022/10/19 14:32:16;;;;;;;0.60;0.60;;;;;;;;;;7391235;19;20125;-74
2022/10/19 14:34:43;;;;;;;0.30;0.30;;;;;;;;;;7392188;19;20184;-75
2022/10/19 14:37:16;;;;;;;0.38;0.38;;;;;;;;;;7393361;19;20506;-74
2022/10/19 14:39:41;;;;;;;0.30;0.30;;;;;;;;;;7390921;19;20160;-75
2022/10/19 14:42:09;;;;;;;0.50;0.50;;;;;;;;;;7392475;19;20132;-74
2022/10/19 14:44:38;;;;;;;0.32;0.32;;;;;;;;;;7391718;19;20248;-74
2022/10/19 14:47:29;;;;;;;0.65;0.65;;;;;;;;;;7391725;19;20225;-75
2022/10/19 14:49:54;;;;;;;0.30;0.30;;;;;;;;;;7390876;19;20137;-74
2022/10/19 14:52:27;;;;;;;0.38;0.38;;;;;;;;;;7390578;19;20152;-73
2022/10/19 14:54:54;;;;;;;0.95;0.95;;;;;;;;;;7393597;19;20174;-74
2022/10/19 14:57:28;;;;;;;0.40;0.40;;;;;;;;;;7389294;19;20140;-73
2022/10/19 15:00:14;;;;;;;0.30;0.30;;;;;;;;;;7388318;19;20135;-73
2022/10/19 15:02:44;;;;;;;0.30;0.30;;;;;;;;;;7388314;19;20185;-71
2022/10/19 15:05:19;;;;;;;0.30;0.30;;;;;;;;;;7389999;19;20172;-73